Time;durP1;ratioP1;P1;durP2;ratioP2;P2;SDS_P1;SDS_P2;PMS_P1;PMS_P2;Temp;Humidity;BMP_temperature;BMP_pressure;BME280_temperature;BME280_humidity;BME280_pressure;Samples;Min_cycle;Max_cycle;Signal;HPM_P1;HPM_P2
2022/07/05 00:00:39;;;;;;;3.92;2.00;;;;;;;18.10;94.66;100360.09;5031606;28;20033;-65
2022/07/05 00:03:05;;;;;;;2.08;1.45;;;;;;;18.03;95.44;100358.72;5031539;28;20393;-65
2022/07/05 00:05:30;;;;;;;2.72;1.77;;;;;;;17.97;95.57;100353.66;5032217;28;20105;-64
2022/07/05 00:07:56;;;;;;;3.88;1.80;;;;;;;17.88;96.01;100353.34;5031484;28;20040;-64
2022/07/05 00:10:21;;;;;;;3.78;1.90;;;;;;;17.86;96.16;100360.63;5031855;28;20918;-64
2022/07/05 00:12:46;;;;;;;2.72;1.88;;;;;;;17.83;96.37;100359.00;5030039;28;20483;-64
2022/07/05 00:15:12;;;;;;;4.70;2.00;;;;;;;17.80;96.79;100352.91;5030163;28;20033;-64
2022/07/05 00:17:38;;;;;;;2.50;1.63;;;;;;;17.74;96.93;100351.41;5030265;28;20041;-64
2022/07/05 00:20:03;;;;;;;2.85;1.90;;;;;;;17.73;97.30;100349.69;5030338;28;20055;-64
2022/07/05 00:22:29;;;;;;;4.30;1.67;;;;;;;17.68;96.88;100351.78;5014261;28;20088;-64
2022/07/05 00:24:54;;;;;;;5.35;2.20;;;;;;;17.66;97.71;100352.84;5010244;28;20108;-64
2022/07/05 00:27:20;;;;;;;3.20;1.80;;;;;;;17.64;98.02;100357.44;5019634;28;20056;-64
2022/07/05 00:29:46;;;;;;;4.65;2.10;;;;;;;17.62;97.78;100357.50;5030004;28;20029;-64
2022/07/05 00:32:11;;;;;;;5.47;1.95;;;;;;;17.58;98.05;100361.31;5030196;28;20028;-64
2022/07/05 00:34:37;;;;;;;3.00;1.80;;;;;;;17.56;98.24;100360.53;5029756;28;20029;-64
2022/07/05 00:37:02;;;;;;;4.18;2.45;;;;;;;17.49;98.50;100356.47;5030238;28;20045;-64
2022/07/05 00:39:28;;;;;;;4.18;2.10;;;;;;;17.42;98.74;100355.03;5017124;28;20038;-64
2022/07/05 00:41:53;;;;;;;3.45;2.15;;;;;;;17.36;98.59;100363.44;5028233;28;20017;-64
2022/07/05 00:44:30;;;;;;;2.38;1.73;;;;;;;17.25;98.51;100360.44;5031742;28;20033;-64
2022/07/05 00:46:55;;;;;;;7.25;2.08;;;;;;;17.18;98.39;100361.75;5029640;28;20028;-64
2022/07/05 00:49:21;;;;;;;2.28;1.63;;;;;;;17.11;98.90;100354.97;5026463;28;20037;-64
2022/07/05 00:51:46;;;;;;;2.40;1.85;;;;;;;17.09;99.46;100359.53;5029726;28;20631;-64
2022/07/05 00:54:11;;;;;;;5.07;2.10;;;;;;;17.04;100.00;100358.91;5029499;28;20033;-64
2022/07/05 00:56:37;;;;;;;3.42;2.03;;;;;;;17.02;100.00;100360.81;5022467;28;20050;-64
2022/07/05 00:59:02;;;;;;;3.75;2.50;;;;;;;17.05;100.00;100366.88;5010551;28;20435;-65
2022/07/05 01:01:28;;;;;;;2.88;2.00;;;;;;;17.09;99.88;100356.84;5012065;28;20022;-65
2022/07/05 01:03:53;;;;;;;3.15;1.85;;;;;;;17.03;100.00;100367.94;5011234;28;20473;-65
2022/07/05 01:06:19;;;;;;;3.30;1.98;;;;;;;17.03;100.00;100367.94;5010885;28;20385;-65
2022/07/05 01:08:45;;;;;;;6.43;2.42;;;;;;;16.97;100.00;100365.56;5030736;28;20033;-64
2022/07/05 01:11:11;;;;;;;4.97;2.92;;;;;;;16.94;100.00;100366.59;5030358;28;20511;-64
2022/07/05 01:13:37;;;;;;;3.53;1.98;;;;;;;16.89;100.00;100363.28;5030491;28;20029;-65
2022/07/05 01:16:03;;;;;;;3.85;1.95;;;;;;;16.87;100.00;100364.31;5030717;28;20029;-65
2022/07/05 01:18:29;;;;;;;6.38;2.50;;;;;;;16.88;100.00;100358.88;5030857;28;20029;-64
2022/07/05 01:20:56;;;;;;;3.38;2.03;;;;;;;16.83;100.00;100360.94;5030438;28;20086;-63
2022/07/05 01:23:22;;;;;;;3.53;1.92;;;;;;;16.81;100.00;100362.81;5030344;28;20040;-64
2022/07/05 01:25:48;;;;;;;3.03;2.10;;;;;;;16.76;100.00;100359.50;5030770;28;20083;-64
2022/07/05 01:28:14;;;;;;;4.60;2.30;;;;;;;16.70;100.00;100358.97;5030596;28;20029;-64
2022/07/05 01:30:41;;;;;;;4.57;2.03;;;;;;;16.68;100.00;100360.84;5030517;28;20025;-64
2022/07/05 01:33:07;;;;;;;3.13;2.35;;;;;;;16.59;100.00;100361.34;5027919;28;20087;-64
2022/07/05 01:35:33;;;;;;;3.00;2.00;;;;;;;16.51;100.00;100350.97;5027816;28;20551;-64
2022/07/05 01:37:59;;;;;;;4.82;2.20;;;;;;;16.54;100.00;100360.72;5027134;28;20060;-64
2022/07/05 01:40:24;;;;;;;3.38;1.90;;;;;;;16.56;100.00;100366.84;5026731;28;20449;-64
2022/07/05 01:42:50;;;;;;;7.85;3.05;;;;;;;16.57;100.00;100360.56;5026904;28;20038;-64
2022/07/05 01:46:02;;;;;;;3.22;2.15;;;;;;;16.52;100.00;100365.28;5027643;28;20117;-64
2022/07/05 01:48:06;;;;;;;4.15;2.35;;;;;;;16.50;100.00;100356.44;5017971;28;20064;-64
2022/07/05 01:50:35;;;;;;;5.25;2.15;;;;;;;16.47;100.00;100357.47;5026132;28;20508;-64
2022/07/05 01:53:03;;;;;;;5.43;2.13;;;;;;;16.42;100.00;100369.34;5028540;28;20026;-64
2022/07/05 01:55:30;;;;;;;3.42;2.50;;;;;;;16.37;100.00;100376.78;5028509;28;20513;-64
2022/07/05 01:57:55;;;;;;;3.35;2.40;;;;;;;16.37;100.00;100377.66;5010296;28;20095;-64
2022/07/05 02:00:21;;;;;;;3.70;2.50;;;;;;;16.36;100.00;100380.41;5008650;28;20402;-65
2022/07/05 02:02:47;;;;;;;3.40;2.13;;;;;;;16.29;100.00;100374.44;5008990;28;20225;-65
2022/07/05 02:05:13;;;;;;;3.70;2.13;;;;;;;16.29;100.00;100371.75;5008373;28;20048;-65
2022/07/05 02:07:47;;;;;;;4.63;2.75;;;;;;;16.28;100.00;100371.84;5020676;28;20025;-64
2022/07/05 02:10:13;;;;;;;3.33;2.30;;;;;;;16.18;100.00;100367.88;5030734;28;20376;-64
2022/07/05 02:12:38;;;;;;;4.93;2.30;;;;;;;16.23;100.00;100373.88;5029328;28;20031;-64
2022/07/05 02:15:04;;;;;;;6.03;2.35;;;;;;;16.29;100.00;100368.22;5030139;28;20063;-64
2022/07/05 02:17:29;;;;;;;4.43;2.30;;;;;;;16.24;100.00;100379.22;5030334;28;20034;-64
2022/07/05 02:19:55;;;;;;;3.28;2.25;;;;;;;16.13;100.00;100368.13;5029053;28;20021;-64
2022/07/05 02:22:20;;;;;;;4.03;2.40;;;;;;;16.03;100.00;100365.97;5029662;28;20095;-64
2022/07/05 02:24:46;;;;;;;4.72;2.50;;;;;;;16.10;100.00;100372.75;5030109;28;20419;-64
2022/07/05 02:27:11;;;;;;;4.63;2.50;;;;;;;16.01;100.00;100379.47;5023664;28;20088;-65
2022/07/05 02:29:37;;;;;;;3.65;2.20;;;;;;;15.93;100.00;100372.72;5010539;28;20462;-64
2022/07/05 02:32:02;;;;;;;3.90;2.80;;;;;;;15.88;100.00;100362.19;5024078;28;20033;-64
2022/07/05 02:34:28;;;;;;;4.20;2.72;;;;;;;15.99;100.00;100375.09;5030082;28;20451;-64
2022/07/05 02:36:53;;;;;;;3.53;2.70;;;;;;;15.98;100.00;100368.88;5030144;28;20029;-64
2022/07/05 02:39:19;;;;;;;4.57;2.60;;;;;;;15.97;100.00;100367.13;5029049;28;20029;-64
2022/07/05 02:41:44;;;;;;;4.75;2.80;;;;;;;15.99;100.00;100370.63;5022274;28;20072;-64
2022/07/05 02:44:10;;;;;;;5.80;2.45;;;;;;;15.96;100.00;100364.53;5030143;28;20492;-64
2022/07/05 02:46:35;;;;;;;4.65;2.50;;;;;;;15.92;100.00;100376.34;5029457;28;20478;-65
2022/07/05 02:49:00;;;;;;;5.15;2.42;;;;;;;15.93;100.00;100378.09;5008983;28;20042;-65
2022/07/05 02:51:26;;;;;;;3.67;2.60;;;;;;;15.90;100.00;100376.41;5008477;28;20022;-65
2022/07/05 02:53:51;;;;;;;3.45;2.17;;;;;;;15.90;100.00;100380.94;5016688;28;20526;-65
2022/07/05 02:56:17;;;;;;;5.35;2.53;;;;;;;15.86;100.00;100380.22;5027515;28;20107;-65
2022/07/05 02:58:42;;;;;;;4.32;2.75;;;;;;;15.82;100.00;100378.59;5027977;28;20026;-65
2022/07/05 03:01:07;;;;;;;4.55;2.20;;;;;;;15.80;100.00;100392.09;5030011;28;20028;-65
2022/07/05 03:03:33;;;;;;;6.50;2.60;;;;;;;15.80;100.00;100380.47;5033503;28;20026;-65
2022/07/05 03:05:58;;;;;;;4.43;2.85;;;;;;;15.72;100.00;100386.22;5033642;28;20036;-65
2022/07/05 03:08:24;;;;;;;4.22;3.17;;;;;;;15.73;100.00;100385.28;5033077;28;20079;-64
2022/07/05 03:10:49;;;;;;;4.10;2.83;;;;;;;15.77;100.00;100392.25;5032880;28;20033;-64
2022/07/05 03:13:15;;;;;;;4.72;2.78;;;;;;;15.86;100.00;100395.44;5032244;28;20032;-65
2022/07/05 03:15:40;;;;;;;5.57;3.13;;;;;;;15.87;100.00;100391.78;5032701;28;20025;-65
2022/07/05 03:18:06;;;;;;;5.00;3.03;;;;;;;15.89;100.00;100387.22;5032750;28;20393;-65
2022/07/05 03:20:31;;;;;;;4.72;3.10;;;;;;;15.85;100.00;100388.34;5022000;28;20108;-65
2022/07/05 03:22:56;;;;;;;4.68;2.92;;;;;;;15.78;100.00;100385.94;5013413;28;20064;-65
2022/07/05 03:25:22;;;;;;;8.10;3.45;;;;;;;15.79;100.00;100393.06;5012979;28;20025;-65
2022/07/05 03:27:47;;;;;;;4.45;2.58;;;;;;;15.75;100.00;100391.44;5026208;28;20440;-65
2022/07/05 03:30:13;;;;;;;6.07;3.67;;;;;;;15.77;100.00;100394.94;5032972;28;20080;-65
2022/07/05 03:32:38;;;;;;;8.13;3.00;;;;;;;15.82;100.00;100395.59;5032009;28;20032;-65
2022/07/05 03:35:04;;;;;;;5.32;3.08;;;;;;;15.85;100.00;100399.91;5032246;28;20025;-65
2022/07/05 03:37:29;;;;;;;7.32;2.60;;;;;;;15.68;100.00;100398.03;5030875;28;20122;-65
2022/07/05 03:39:55;;;;;;;6.28;2.78;;;;;;;15.81;100.00;100409.91;5030978;28;20384;-65
2022/07/05 03:42:20;;;;;;;4.95;2.85;;;;;;;15.79;100.00;100416.31;5030235;28;20033;-65
2022/07/05 03:44:46;;;;;;;6.80;3.05;;;;;;;15.74;100.00;100419.22;5030692;28;20021;-64
2022/07/05 03:47:12;;;;;;;4.88;2.83;;;;;;;15.73;100.00;100425.50;5030727;28;20017;-65
2022/07/05 03:49:38;;;;;;;4.80;2.92;;;;;;;15.73;100.00;100421.97;5029311;28;20033;-65
2022/07/05 03:52:03;;;;;;;7.97;2.78;;;;;;;15.70;100.00;100427.47;5031714;28;20455;-64
2022/07/05 03:54:29;;;;;;;4.43;2.90;;;;;;;15.62;100.00;100430.50;5031048;28;20444;-63
2022/07/05 03:56:54;;;;;;;6.13;2.67;;;;;;;15.63;100.00;100434.91;5030608;28;20056;-63
2022/07/05 03:59:20;;;;;;;7.55;3.50;;;;;;;15.57;100.00;100434.34;5013543;28;20092;-63
2022/07/05 04:01:45;;;;;;;3.45;2.42;;;;;;;15.53;100.00;100436.28;5010994;28;20026;-64
2022/07/05 04:04:10;;;;;;;6.93;2.65;;;;;;;15.53;100.00;100441.66;5011003;28;20409;-64
2022/07/05 04:06:36;;;;;;;3.80;2.50;;;;;;;15.56;100.00;100444.22;5013112;28;20567;-64
2022/07/05 04:09:01;;;;;;;3.67;2.50;;;;;;;15.64;100.00;100444.72;5030794;28;20033;-64
2022/07/05 04:11:27;;;;;;;5.32;2.88;;;;;;;15.69;100.00;100447.19;5031345;28;20022;-64
2022/07/05 04:13:52;;;;;;;4.65;3.15;;;;;;;15.75;100.00;100446.88;5030332;28;20099;-64
2022/07/05 04:16:17;;;;;;;5.03;2.83;;;;;;;15.79;100.00;100454.75;5030809;28;20365;-64
2022/07/05 04:18:43;;;;;;;4.47;2.90;;;;;;;15.83;100.00;100455.47;5030139;28;20127;-64
2022/07/05 04:21:08;;;;;;;6.47;3.05;;;;;;;15.87;100.00;100445.44;5013420;28;20022;-63
2022/07/05 04:23:34;;;;;;;4.80;2.88;;;;;;;15.95;100.00;100448.66;5013123;28;20029;-63
2022/07/05 04:26:02;;;;;;;4.82;2.88;;;;;;;16.00;100.00;100455.53;5025322;28;20028;-63
2022/07/05 04:28:29;;;;;;;4.70;2.90;;;;;;;16.08;100.00;100455.19;5029789;28;20049;-63
2022/07/05 04:30:58;;;;;;;4.57;3.33;;;;;;;16.16;100.00;100458.38;5030161;28;20029;-63
2022/07/05 04:33:24;;;;;;;12.32;4.10;;;;;;;16.22;100.00;100458.94;5031361;28;20052;-63
2022/07/05 04:35:49;;;;;;;4.82;3.08;;;;;;;16.24;100.00;100457.06;5031612;28;20025;-63
2022/07/05 04:38:14;;;;;;;7.90;2.92;;;;;;;16.34;100.00;100458.31;5024044;28;20079;-63
2022/07/05 04:40:40;;;;;;;5.75;3.35;;;;;;;16.42;100.00;100455.28;5011333;28;20057;-63
2022/07/05 04:43:06;;;;;;;6.75;3.47;;;;;;;16.56;100.00;100460.84;5025564;28;20092;-63
2022/07/05 04:45:32;;;;;;;8.93;3.50;;;;;;;16.78;100.00;100458.84;5031546;28;20073;-63
2022/07/05 04:47:58;;;;;;;5.70;3.45;;;;;;;17.02;100.00;100468.31;5019060;28;20030;-63
2022/07/05 04:50:23;;;;;;;6.50;3.20;;;;;;;17.21;99.70;100463.75;5012194;28;20026;-63
2022/07/05 04:52:48;;;;;;;4.43;3.00;;;;;;;17.34;97.65;100467.53;5023352;28;20072;-63
2022/07/05 04:55:14;;;;;;;4.00;2.60;;;;;;;17.44;96.10;100468.78;5030632;28;20416;-64
2022/07/05 04:57:41;;;;;;;9.00;3.00;;;;;;;17.47;96.38;100455.19;5031079;28;20029;-64
2022/07/05 05:00:09;;;;;;;4.63;3.00;;;;;;;17.70;95.97;100465.56;5031189;28;20412;-64
2022/07/05 05:02:34;;;;;;;5.47;3.03;;;;;;;17.84;95.60;100472.91;5030782;28;20029;-64
2022/07/05 05:05:00;;;;;;;4.28;2.85;;;;;;;17.92;94.49;100476.88;5030904;28;20026;-64
2022/07/05 05:07:26;;;;;;;4.70;2.70;;;;;;;18.00;93.16;100477.34;5030575;28;20061;-63
2022/07/05 05:09:51;;;;;;;5.10;3.10;;;;;;;18.03;90.25;100479.88;5030660;28;20037;-63
2022/07/05 05:12:17;;;;;;;4.20;2.47;;;;;;;18.16;89.37;100480.03;5030492;28;20460;-63
2022/07/05 05:14:42;;;;;;;4.30;2.72;;;;;;;18.28;88.25;100482.94;5030430;28;20040;-63
2022/07/05 05:17:07;;;;;;;4.78;2.65;;;;;;;18.38;88.70;100478.72;5031144;28;20045;-63
2022/07/05 05:19:33;;;;;;;4.72;2.80;;;;;;;18.55;89.23;100472.41;5027789;28;20030;-63
2022/07/05 05:21:58;;;;;;;7.18;2.45;;;;;;;18.71;89.01;100480.47;5011397;28;20017;-63
2022/07/05 05:24:24;;;;;;;6.15;2.53;;;;;;;18.81;88.63;100482.56;5010394;28;20021;-63
2022/07/05 05:26:50;;;;;;;6.65;3.00;;;;;;;18.87;88.09;100484.00;5016702;28;20025;-63
2022/07/05 05:29:16;;;;;;;3.28;2.28;;;;;;;18.94;87.43;100467.41;5011214;28;20383;-63
2022/07/05 05:31:42;;;;;;;6.25;2.65;;;;;;;19.05;86.20;100486.50;5010619;28;20030;-63
2022/07/05 05:34:07;;;;;;;6.95;2.95;;;;;;;19.16;84.44;100481.31;5024102;28;20034;-63
2022/07/05 05:36:33;;;;;;;4.57;2.88;;;;;;;19.27;84.00;100476.16;5030808;28;20025;-64
2022/07/05 05:38:58;;;;;;;6.03;2.83;;;;;;;19.40;84.07;100484.38;5030512;28;20180;-64
2022/07/05 05:41:23;;;;;;;6.57;2.90;;;;;;;19.48;84.41;100485.66;5029989;28;20415;-64
2022/07/05 05:43:49;;;;;;;4.47;2.20;;;;;;;19.64;83.46;100488.25;5029081;28;20036;-64
2022/07/05 05:46:14;;;;;;;3.63;2.10;;;;;;;19.74;82.27;100486.72;5030802;28;20045;-64
2022/07/05 05:48:40;;;;;;;3.92;2.33;;;;;;;19.88;80.32;100494.84;5012748;28;20026;-63
2022/07/05 05:51:05;;;;;;;3.97;2.10;;;;;;;20.02;79.22;100496.66;5013199;28;20020;-64
2022/07/05 05:53:30;;;;;;;5.60;2.13;;;;;;;20.13;78.61;100497.69;5022531;28;20037;-64
2022/07/05 05:55:56;;;;;;;2.95;1.85;;;;;;;20.20;78.45;100495.50;5030441;28;20543;-64
2022/07/05 05:58:26;;;;;;;4.68;1.90;;;;;;;20.26;77.28;100506.78;5029990;28;20131;-64
2022/07/05 06:00:52;;;;;;;5.55;2.45;;;;;;;20.40;75.86;100508.59;5030521;28;20029;-64
2022/07/05 06:03:27;;;;;;;4.20;2.60;;;;;;;20.53;76.31;100512.22;5030618;28;20033;-64
2022/07/05 06:05:52;;;;;;;3.53;2.30;;;;;;;20.49;75.72;100481.84;5029672;28;20033;-64
2022/07/05 06:08:18;;;;;;;5.03;2.60;;;;;;;20.72;75.01;100502.81;5030903;28;20385;-64
2022/07/05 06:10:44;;;;;;;3.95;2.28;;;;;;;20.86;74.15;100510.00;5012350;28;20069;-64
2022/07/05 06:13:11;;;;;;;4.82;2.42;;;;;;;20.92;73.86;100518.56;5028763;28;20021;-64
2022/07/05 06:15:37;;;;;;;3.47;1.90;;;;;;;21.02;73.47;100518.00;5025450;28;20056;-64
2022/07/05 06:18:04;;;;;;;3.58;2.17;;;;;;;21.13;74.00;100518.13;5008850;28;20025;-64
2022/07/05 06:20:32;;;;;;;4.57;2.13;;;;;;;21.31;73.46;100525.00;5019744;28;20030;-64
2022/07/05 06:22:59;;;;;;;3.15;1.88;;;;;;;21.35;71.59;100521.13;5030424;28;20028;-64
2022/07/05 06:25:25;;;;;;;4.75;2.30;;;;;;;21.38;71.33;100518.22;5029853;28;20021;-64
2022/07/05 06:27:51;;;;;;;3.83;2.30;;;;;;;21.48;71.06;100519.31;5016107;28;20022;-64
2022/07/05 06:30:19;;;;;;;3.92;2.42;;;;;;;21.62;70.64;100528.19;5026810;28;20033;-64
2022/07/05 06:32:46;;;;;;;3.58;2.03;;;;;;;21.73;69.44;100527.47;5030054;28;20357;-64
2022/07/05 06:35:12;;;;;;;8.15;2.10;;;;;;;21.88;68.11;100526.38;5029975;28;20026;-64
2022/07/05 06:37:53;;;;;;;4.15;2.10;;;;;;;22.03;68.21;100526.19;5032307;28;20060;-64
2022/07/05 06:40:26;;;;;;;2.80;1.90;;;;;;;22.10;66.00;100532.03;5033472;28;20021;-64
2022/07/05 06:42:55;;;;;;;3.00;1.88;;;;;;;22.33;64.97;100533.94;5033829;28;20499;-64
2022/07/05 06:45:22;;;;;;;2.85;1.75;;;;;;;22.59;63.00;100534.75;5030256;28;20045;-63
2022/07/05 06:47:54;;;;;;;2.10;1.23;;;;;;;22.64;62.04;100544.31;5023513;28;20025;-63
2022/07/05 06:50:19;;;;;;;2.47;1.63;;;;;;;22.64;61.93;100538.88;5029282;28;20075;-63
2022/07/05 06:52:45;;;;;;;4.40;1.58;;;;;;;22.89;62.18;100538.78;5032136;28;20041;-63
2022/07/05 06:55:10;;;;;;;2.70;1.77;;;;;;;23.04;60.88;100537.66;5031650;28;20136;-63
2022/07/05 06:57:36;;;;;;;1.95;1.30;;;;;;;23.18;60.07;100537.44;5032041;28;20353;-63
2022/07/05 07:00:02;;;;;;;5.00;1.50;;;;;;;23.31;59.12;100538.28;5031839;28;20108;-63
2022/07/05 07:02:27;;;;;;;3.45;1.38;;;;;;;23.47;58.98;100537.09;5031906;28;20021;-63
2022/07/05 07:04:53;;;;;;;2.17;1.60;;;;;;;23.62;58.90;100541.34;5031895;28;20056;-63
2022/07/05 07:10:03;;;;;;;2.88;1.80;;;;;;;23.90;58.16;100543.63;5026409;28;20396;-63
2022/07/05 07:12:29;;;;;;;3.15;1.45;;;;;;;24.16;57.09;100535.16;5031891;28;20021;-64
2022/07/05 07:14:58;;;;;;;2.53;1.60;;;;;;;24.18;56.43;100537.75;5032302;28;20032;-64
2022/07/05 07:17:24;;;;;;;4.70;1.50;;;;;;;24.31;55.07;100533.06;5032621;28;20136;-63
2022/07/05 07:19:50;;;;;;;2.38;1.50;;;;;;;24.46;55.00;100535.38;5032569;28;20032;-63
2022/07/05 07:22:15;;;;;;;2.50;1.50;;;;;;;24.62;54.24;100537.72;5031649;28;20029;-64
2022/07/05 07:24:41;;;;;;;4.18;1.50;;;;;;;24.86;53.26;100552.06;5032553;28;20133;-63
2022/07/05 07:27:07;;;;;;;5.07;2.00;;;;;;;25.02;54.23;100548.94;5029474;28;20045;-63
2022/07/05 07:29:38;;;;;;;5.00;1.27;;;;;;;25.05;52.17;100548.66;5032268;28;20112;-63
2022/07/05 07:32:05;;;;;;;3.17;1.30;;;;;;;25.40;51.84;100549.31;5032110;28;20504;-63
2022/07/05 07:34:32;;;;;;;4.32;1.50;;;;;;;25.74;50.09;100548.13;5032367;28;20053;-63
2022/07/05 07:36:58;;;;;;;2.15;1.23;;;;;;;26.24;48.38;100560.09;5032113;28;20021;-63
2022/07/05 07:39:24;;;;;;;3.28;1.30;;;;;;;26.26;46.60;100555.38;5032197;28;20436;-63
2022/07/05 07:41:50;;;;;;;3.75;1.50;;;;;;;26.09;47.13;100561.44;5031208;28;20468;-63
2022/07/05 07:44:16;;;;;;;2.22;1.38;;;;;;;26.59;46.37;100557.81;5032033;28;20014;-63
2022/07/05 07:46:42;;;;;;;4.15;1.52;;;;;;;26.82;47.07;100560.19;5031909;28;20025;-65
2022/07/05 07:49:08;;;;;;;4.60;1.52;;;;;;;27.33;46.73;100560.03;5031042;28;20072;-63
2022/07/05 07:51:33;;;;;;;4.38;1.30;;;;;;;27.31;44.93;100562.06;5029468;28;20032;-63
2022/07/05 07:53:59;;;;;;;3.63;1.48;;;;;;;27.69;45.49;100570.25;5029685;28;20021;-64
2022/07/05 07:56:25;;;;;;;3.33;1.25;;;;;;;27.93;43.50;100570.69;5031445;28;20414;-64
2022/07/05 07:58:50;;;;;;;2.33;1.30;;;;;;;28.18;43.58;100561.84;5031942;28;20052;-64
2022/07/05 08:01:16;;;;;;;2.92;1.13;;;;;;;28.50;42.99;100568.81;5027715;28;20013;-64
2022/07/05 08:03:41;;;;;;;3.22;1.50;;;;;;;28.85;43.33;100568.91;5022466;28;20108;-64
2022/07/05 08:06:08;;;;;;;2.40;1.23;;;;;;;29.01;42.28;100567.22;5020691;28;20080;-64
2022/07/05 08:08:42;;;;;;;2.67;1.00;;;;;;;29.27;42.44;100564.66;5029409;28;20027;-64
2022/07/05 08:11:09;;;;;;;4.13;1.20;;;;;;;29.29;42.24;100570.84;5029417;28;20377;-64
2022/07/05 08:13:35;;;;;;;2.22;1.10;;;;;;;29.55;40.58;100560.81;5029305;28;20508;-64
2022/07/05 08:16:01;;;;;;;4.25;1.45;;;;;;;29.61;39.04;100566.53;5029303;28;20029;-65
2022/07/05 08:23:56;;;;;;;4.50;1.52;;;;;;;29.58;38.91;100555.88;5028721;28;20397;-64
2022/07/05 08:26:21;;;;;;;4.10;1.05;;;;;;;29.80;39.31;100560.03;5024794;28;20029;-65
2022/07/05 08:28:47;;;;;;;5.22;1.50;;;;;;;30.19;39.41;100561.34;5007823;28;20021;-65
2022/07/05 08:31:13;;;;;;;2.63;1.02;;;;;;;30.50;37.15;100564.47;5008120;28;20061;-64
2022/07/05 08:33:38;;;;;;;2.63;1.10;;;;;;;30.32;38.04;100561.81;5027275;28;20037;-64
2022/07/05 08:36:04;;;;;;;3.42;1.10;;;;;;;30.42;38.12;100557.06;5024522;28;20033;-64
2022/07/05 08:38:29;;;;;;;3.78;0.95;;;;;;;30.75;38.36;100563.56;5027901;28;20159;-65
2022/07/05 08:40:56;;;;;;;3.38;1.05;;;;;;;30.77;39.08;100559.63;5029994;28;20149;-65
2022/07/05 08:43:23;;;;;;;1.60;0.80;;;;;;;30.45;37.65;100564.97;5029348;28;20026;-65
2022/07/05 08:45:50;;;;;;;2.50;0.80;;;;;;;30.67;38.43;100564.41;5030100;28;20410;-65
2022/07/05 08:48:16;;;;;;;1.77;0.90;;;;;;;30.95;36.81;100566.94;5029902;28;20056;-65
2022/07/05 08:50:43;;;;;;;2.65;0.77;;;;;;;31.05;36.02;100557.53;5029729;28;20026;-65
2022/07/05 08:53:09;;;;;;;1.45;0.85;;;;;;;31.29;35.82;100548.44;5025109;28;20040;-65
2022/07/05 08:55:34;;;;;;;4.43;0.90;;;;;;;31.60;35.66;100560.56;5027810;28;20378;-65
2022/07/05 08:58:00;;;;;;;2.33;1.00;;;;;;;31.52;35.85;100541.28;5026452;28;20076;-65
2022/07/05 09:00:26;;;;;;;3.92;1.45;;;;;;;31.81;35.70;100553.50;5026180;28;20029;-65
2022/07/05 09:02:53;;;;;;;2.33;1.05;;;;;;;31.85;35.14;100543.91;5025315;28;20488;-65
2022/07/05 09:05:20;;;;;;;3.33;1.10;;;;;;;31.68;34.91;100550.41;5026036;28;20044;-65
2022/07/05 09:07:58;;;;;;;2.70;0.82;;;;;;;31.90;35.48;100551.66;5028217;28;20033;-65
2022/07/05 09:10:26;;;;;;;1.08;0.70;;;;;;;31.86;32.84;100553.06;5026704;28;20033;-65
2022/07/05 09:12:51;;;;;;;2.10;0.75;;;;;;;32.16;35.07;100556.97;5027309;28;20034;-65
2022/07/05 09:15:17;;;;;;;2.83;1.15;;;;;;;32.26;32.44;100552.97;5028086;28;20315;-65
2022/07/05 09:17:46;;;;;;;1.33;0.75;;;;;;;32.31;34.40;100553.31;5027515;28;20064;-65
2022/07/05 09:20:16;;;;;;;3.90;0.98;;;;;;;32.05;33.23;100555.44;5027253;28;20037;-64
2022/07/05 09:22:47;;;;;;;3.03;0.80;;;;;;;32.11;33.60;100554.72;5027760;28;20548;-64
2022/07/05 09:25:23;;;;;;;3.30;0.82;;;;;;;31.91;33.54;100558.91;5028112;28;20021;-64
2022/07/05 09:27:56;;;;;;;3.38;0.75;;;;;;;31.86;34.41;100555.81;5029447;28;20083;-64
2022/07/05 09:30:36;;;;;;;2.13;0.80;;;;;;;31.90;34.02;100558.03;5028763;28;20191;-64
2022/07/05 09:33:09;;;;;;;2.05;0.80;;;;;;;32.18;33.85;100558.50;5029548;28;20128;-65
2022/07/05 09:35:37;;;;;;;2.95;0.98;;;;;;;32.22;34.25;100561.75;5027534;28;20025;-65
2022/07/05 09:38:04;;;;;;;2.83;0.90;;;;;;;31.79;34.42;100554.72;5027571;28;20040;-66
2022/07/05 09:40:32;;;;;;;1.90;0.77;;;;;;;31.38;34.20;100561.25;5027000;28;20384;-64
2022/07/05 09:43:14;;;;;;;1.65;0.95;;;;;;;31.43;35.72;100558.84;5027638;28;20017;-65
2022/07/05 09:45:49;;;;;;;2.22;1.05;;;;;;;31.86;34.47;100559.38;5020111;28;20025;-66
2022/07/05 09:48:14;;;;;;;2.58;0.88;;;;;;;32.08;33.48;100555.06;5025928;28;20037;-66
2022/07/05 09:50:40;;;;;;;1.10;0.60;;;;;;;32.21;33.83;100560.06;5022603;28;20037;-65
2022/07/05 09:53:06;;;;;;;2.65;0.80;;;;;;;32.43;33.25;100559.34;5028067;28;20427;-65
2022/07/05 09:55:32;;;;;;;2.47;1.10;;;;;;;32.44;32.88;100559.16;5028553;28;20461;-65
2022/07/05 09:57:58;;;;;;;0.98;0.68;;;;;;;32.71;33.51;100557.84;5028769;28;20029;-65
2022/07/05 10:00:24;;;;;;;3.97;0.73;;;;;;;33.19;35.00;100557.66;5028602;28;20033;-65
2022/07/05 10:02:51;;;;;;;1.52;0.63;;;;;;;33.29;32.61;100550.88;5027674;28;20025;-65
2022/07/05 10:05:19;;;;;;;1.77;0.70;;;;;;;33.67;32.36;100556.47;5028464;28;20021;-65
2022/07/05 10:07:48;;;;;;;1.60;0.80;;;;;;;33.85;30.52;100555.13;5028591;28;20075;-65
2022/07/05 10:10:33;;;;;;;1.40;0.70;;;;;;;33.60;30.30;100555.50;5027973;28;20173;-65
2022/07/05 10:13:02;;;;;;;1.75;0.70;;;;;;;33.53;30.20;100557.25;5026880;28;20039;-65
2022/07/05 10:15:33;;;;;;;2.40;0.90;;;;;;;33.70;32.31;100550.59;5032036;28;20068;-65
2022/07/05 10:18:12;;;;;;;1.20;0.60;;;;;;;33.62;31.35;100553.41;5031346;28;20025;-65
2022/07/05 10:20:37;;;;;;;1.45;0.50;;;;;;;33.09;31.72;100549.63;5023084;28;20040;-65
2022/07/05 10:23:04;;;;;;;1.30;0.50;;;;;;;33.12;33.02;100540.97;5030647;28;20395;-65
2022/07/05 10:25:30;;;;;;;1.55;0.60;;;;;;;33.47;33.57;100545.09;5030730;28;20029;-65
2022/07/05 10:27:58;;;;;;;1.38;0.70;;;;;;;33.62;33.77;100548.75;5023511;28;20033;-65
2022/07/05 10:30:24;;;;;;;1.33;0.70;;;;;;;33.65;31.03;100550.28;5029738;28;20026;-65
2022/07/05 10:32:50;;;;;;;2.38;0.70;;;;;;;33.15;32.08;100551.63;5030115;28;20100;-65
2022/07/05 10:35:17;;;;;;;4.47;1.80;;;;;;;33.06;32.47;100541.72;5031359;28;20105;-65
2022/07/05 10:37:43;;;;;;;2.60;0.80;;;;;;;33.47;31.37;100550.59;5032763;28;20091;-65
2022/07/05 10:40:09;;;;;;;0.90;0.63;;;;;;;33.75;32.58;100540.72;5031929;28;20033;-65
2022/07/05 10:42:56;;;;;;;3.08;0.70;;;;;;;33.69;29.67;100543.34;5030439;28;20022;-65
2022/07/05 10:45:38;;;;;;;1.25;0.70;;;;;;;34.13;33.51;100547.97;5031479;28;20065;-65
2022/07/05 10:48:13;;;;;;;1.50;0.60;;;;;;;34.44;31.90;100542.31;5023749;28;20029;-65
2022/07/05 10:50:48;;;;;;;1.73;0.80;;;;;;;34.49;31.54;100543.47;5029872;28;20078;-65
2022/07/05 10:53:14;;;;;;;2.47;0.57;;;;;;;34.66;31.09;100544.13;5031989;28;20117;-65
2022/07/05 10:56:06;;;;;;;1.92;0.70;;;;;;;35.08;30.92;100540.63;5032807;28;20081;-65
2022/07/05 10:58:38;;;;;;;1.95;0.50;;;;;;;35.06;30.52;100534.47;5027947;28;20941;-65
2022/07/05 11:01:16;;;;;;;2.20;0.60;;;;;;;34.53;30.74;100550.31;5028055;28;20033;-65
2022/07/05 11:03:49;;;;;;;2.22;0.45;;;;;;;34.31;30.30;100547.59;5012897;28;20030;-65
2022/07/05 11:06:33;;;;;;;3.13;0.57;;;;;;;34.21;29.80;100544.25;5012326;28;20073;-65
2022/07/05 11:09:08;;;;;;;4.85;0.77;;;;;;;34.30;31.54;100548.66;5010299;28;20427;-65
2022/07/05 11:11:41;;;;;;;2.38;0.50;;;;;;;33.92;30.19;100535.94;5012941;28;20048;-65
2022/07/05 11:14:22;;;;;;;0.82;0.50;;;;;;;34.65;29.76;100544.31;5030876;28;20025;-65
2022/07/05 11:17:13;;;;;;;1.75;0.60;;;;;;;35.36;29.70;100534.16;5030557;28;20033;-66
2022/07/05 11:19:57;;;;;;;1.20;0.68;;;;;;;35.53;28.69;100526.50;5030138;28;20464;-65
2022/07/05 11:22:22;;;;;;;1.17;0.60;;;;;;;35.51;27.57;100534.13;5031443;28;20032;-65
2022/07/05 11:24:48;;;;;;;1.80;0.60;;;;;;;35.20;27.79;100531.66;5031096;28;20021;-65
2022/07/05 11:27:13;;;;;;;1.85;0.47;;;;;;;35.20;29.62;100520.59;5031418;28;20071;-65
2022/07/05 11:29:52;;;;;;;1.10;0.50;;;;;;;34.25;28.21;100526.28;5032156;28;20025;-65